sensor_id;sensor_type;location;lat;lon;timestamp;P1;durP1;ratioP1;P2;durP2;ratioP2
62058;SDS011;48017;51.064;7.014;2022-07-23T00:02:21;23.27;;;15.75;;
62058;SDS011;48017;51.064;7.014;2022-07-23T00:04:46;25.67;;;17.13;;
62058;SDS011;48017;51.064;7.014;2022-07-23T00:07:11;19.70;;;15.32;;
62058;SDS011;48017;51.064;7.014;2022-07-23T00:09:37;21.65;;;16.83;;
62058;SDS011;48017;51.064;7.014;2022-07-23T00:12:02;23.00;;;16.85;;
62058;SDS011;48017;51.064;7.014;2022-07-23T00:14:28;23.13;;;17.45;;
62058;SDS011;48017;51.064;7.014;2022-07-23T00:16:53;25.42;;;17.33;;
62058;SDS011;48017;51.064;7.014;2022-07-23T00:19:19;24.65;;;18.75;;
62058;SDS011;48017;51.064;7.014;2022-07-23T00:21:44;25.23;;;18.10;;
62058;SDS011;48017;51.064;7.014;2022-07-23T00:24:09;27.77;;;18.70;;
62058;SDS011;48017;51.064;7.014;2022-07-23T00:26:35;24.00;;;18.33;;
62058;SDS011;48017;51.064;7.014;2022-07-23T00:29:00;25.05;;;17.75;;
62058;SDS011;48017;51.064;7.014;2022-07-23T00:31:25;25.77;;;18.75;;
62058;SDS011;48017;51.064;7.014;2022-07-23T00:33:52;21.15;;;17.30;;
62058;SDS011;48017;51.064;7.014;2022-07-23T00:36:21;25.92;;;18.52;;
62058;SDS011;48017;51.064;7.014;2022-07-23T00:38:48;23.27;;;18.08;;
62058;SDS011;48017;51.064;7.014;2022-07-23T00:41:14;20.98;;;17.02;;
62058;SDS011;48017;51.064;7.014;2022-07-23T00:43:39;27.38;;;17.92;;
62058;SDS011;48017;51.064;7.014;2022-07-23T00:46:04;24.98;;;17.63;;
62058;SDS011;48017;51.064;7.014;2022-07-23T00:48:30;21.65;;;18.08;;
62058;SDS011;48017;51.064;7.014;2022-07-23T00:50:55;27.42;;;18.98;;
62058;SDS011;48017;51.064;7.014;2022-07-23T00:53:21;23.38;;;17.80;;
62058;SDS011;48017;51.064;7.014;2022-07-23T00:55:47;22.77;;;17.70;;
62058;SDS011;48017;51.064;7.014;2022-07-23T00:58:13;26.02;;;17.52;;
62058;SDS011;48017;51.064;7.014;2022-07-23T01:00:40;24.88;;;18.33;;
62058;SDS011;48017;51.064;7.014;2022-07-23T01:03:06;26.42;;;19.08;;
62058;SDS011;48017;51.064;7.014;2022-07-23T01:05:32;25.38;;;19.33;;
62058;SDS011;48017;51.064;7.014;2022-07-23T01:07:58;23.65;;;18.60;;
62058;SDS011;48017;51.064;7.014;2022-07-23T01:10:24;27.83;;;19.00;;
62058;SDS011;48017;51.064;7.014;2022-07-23T01:12:57;25.77;;;18.90;;
62058;SDS011;48017;51.064;7.014;2022-07-23T01:15:23;27.17;;;18.02;;
62058;SDS011;48017;51.064;7.014;2022-07-23T01:17:49;25.38;;;18.42;;
62058;SDS011;48017;51.064;7.014;2022-07-23T01:20:15;26.85;;;18.48;;
62058;SDS011;48017;51.064;7.014;2022-07-23T01:22:40;29.20;;;18.90;;
62058;SDS011;48017;51.064;7.014;2022-07-23T01:25:06;23.98;;;18.45;;
62058;SDS011;48017;51.064;7.014;2022-07-23T01:27:32;26.10;;;18.10;;
62058;SDS011;48017;51.064;7.014;2022-07-23T01:29:57;26.77;;;18.75;;
62058;SDS011;48017;51.064;7.014;2022-07-23T01:32:25;26.40;;;17.88;;
62058;SDS011;48017;51.064;7.014;2022-07-23T01:34:51;26.48;;;18.63;;
62058;SDS011;48017;51.064;7.014;2022-07-23T01:37:16;25.15;;;17.90;;
62058;SDS011;48017;51.064;7.014;2022-07-23T01:39:41;26.52;;;17.75;;
62058;SDS011;48017;51.064;7.014;2022-07-23T01:42:07;26.02;;;17.70;;
62058;SDS011;48017;51.064;7.014;2022-07-23T01:44:32;23.67;;;16.60;;
62058;SDS011;48017;51.064;7.014;2022-07-23T01:46:58;24.80;;;17.23;;
62058;SDS011;48017;51.064;7.014;2022-07-23T01:49:23;25.52;;;17.08;;
62058;SDS011;48017;51.064;7.014;2022-07-23T01:51:48;23.83;;;16.40;;
62058;SDS011;48017;51.064;7.014;2022-07-23T01:56:52;26.40;;;16.55;;
62058;SDS011;48017;51.064;7.014;2022-07-23T01:59:17;22.52;;;16.10;;
62058;SDS011;48017;51.064;7.014;2022-07-23T02:01:43;22.35;;;16.98;;
62058;SDS011;48017;51.064;7.014;2022-07-23T02:04:08;25.58;;;16.88;;
62058;SDS011;48017;51.064;7.014;2022-07-23T02:06:33;21.13;;;17.05;;
62058;SDS011;48017;51.064;7.014;2022-07-23T02:08:59;24.83;;;16.63;;
62058;SDS011;48017;51.064;7.014;2022-07-23T02:11:24;24.67;;;17.17;;
62058;SDS011;48017;51.064;7.014;2022-07-23T02:13:49;27.48;;;17.83;;
62058;SDS011;48017;51.064;7.014;2022-07-23T02:16:15;24.02;;;17.02;;
62058;SDS011;48017;51.064;7.014;2022-07-23T02:18:40;21.17;;;16.60;;
62058;SDS011;48017;51.064;7.014;2022-07-23T02:21:05;24.33;;;17.48;;
62058;SDS011;48017;51.064;7.014;2022-07-23T02:23:31;22.35;;;16.83;;
62058;SDS011;48017;51.064;7.014;2022-07-23T02:25:56;24.40;;;17.48;;
62058;SDS011;48017;51.064;7.014;2022-07-23T02:28:21;23.92;;;17.20;;
62058;SDS011;48017;51.064;7.014;2022-07-23T02:30:47;25.02;;;17.25;;
62058;SDS011;48017;51.064;7.014;2022-07-23T02:33:12;24.75;;;16.83;;
62058;SDS011;48017;51.064;7.014;2022-07-23T02:35:37;24.50;;;17.50;;
62058;SDS011;48017;51.064;7.014;2022-07-23T02:38:03;24.77;;;17.67;;
62058;SDS011;48017;51.064;7.014;2022-07-23T02:40:28;21.88;;;16.95;;
62058;SDS011;48017;51.064;7.014;2022-07-23T02:42:54;24.73;;;16.98;;
62058;SDS011;48017;51.064;7.014;2022-07-23T02:45:19;27.58;;;16.55;;
62058;SDS011;48017;51.064;7.014;2022-07-23T02:47:44;21.17;;;16.30;;
62058;SDS011;48017;51.064;7.014;2022-07-23T02:50:10;21.45;;;16.27;;
62058;SDS011;48017;51.064;7.014;2022-07-23T02:52:37;19.73;;;16.20;;
62058;SDS011;48017;51.064;7.014;2022-07-23T02:55:03;22.95;;;16.20;;
62058;SDS011;48017;51.064;7.014;2022-07-23T02:57:28;24.85;;;17.17;;
62058;SDS011;48017;51.064;7.014;2022-07-23T02:59:55;22.25;;;16.65;;
62058;SDS011;48017;51.064;7.014;2022-07-23T03:02:20;23.00;;;16.73;;
62058;SDS011;48017;51.064;7.014;2022-07-23T03:04:45;23.55;;;17.10;;
62058;SDS011;48017;51.064;7.014;2022-07-23T03:07:11;23.67;;;17.13;;
62058;SDS011;48017;51.064;7.014;2022-07-23T03:09:36;23.63;;;16.73;;
62058;SDS011;48017;51.064;7.014;2022-07-23T03:12:02;23.70;;;17.10;;
62058;SDS011;48017;51.064;7.014;2022-07-23T03:14:27;21.80;;;15.60;;
62058;SDS011;48017;51.064;7.014;2022-07-23T03:16:53;24.95;;;17.23;;
62058;SDS011;48017;51.064;7.014;2022-07-23T03:19:19;23.73;;;17.33;;
62058;SDS011;48017;51.064;7.014;2022-07-23T03:21:44;21.90;;;16.35;;
62058;SDS011;48017;51.064;7.014;2022-07-23T03:24:10;25.35;;;16.50;;
62058;SDS011;48017;51.064;7.014;2022-07-23T03:26:35;28.27;;;20.58;;
62058;SDS011;48017;51.064;7.014;2022-07-23T03:29:01;27.50;;;19.83;;
62058;SDS011;48017;51.064;7.014;2022-07-23T03:31:28;70.00;;;36.80;;
62058;SDS011;48017;51.064;7.014;2022-07-23T03:33:56;30.70;;;21.40;;
62058;SDS011;48017;51.064;7.014;2022-07-23T03:36:21;26.08;;;19.08;;
62058;SDS011;48017;51.064;7.014;2022-07-23T03:38:46;25.15;;;17.58;;
62058;SDS011;48017;51.064;7.014;2022-07-23T03:41:12;23.92;;;17.17;;
62058;SDS011;48017;51.064;7.014;2022-07-23T03:43:37;26.45;;;17.38;;
62058;SDS011;48017;51.064;7.014;2022-07-23T03:46:02;23.95;;;16.73;;
62058;SDS011;48017;51.064;7.014;2022-07-23T03:48:28;23.42;;;16.02;;
62058;SDS011;48017;51.064;7.014;2022-07-23T03:50:53;19.10;;;15.10;;
62058;SDS011;48017;51.064;7.014;2022-07-23T03:53:19;20.08;;;15.68;;
62058;SDS011;48017;51.064;7.014;2022-07-23T03:55:44;20.88;;;15.25;;
62058;SDS011;48017;51.064;7.014;2022-07-23T03:58:09;22.15;;;15.73;;
62058;SDS011;48017;51.064;7.014;2022-07-23T04:00:35;23.90;;;16.17;;
62058;SDS011;48017;51.064;7.014;2022-07-23T04:03:00;19.02;;;15.55;;
62058;SDS011;48017;51.064;7.014;2022-07-23T04:05:25;20.70;;;15.25;;
62058;SDS011;48017;51.064;7.014;2022-07-23T04:07:51;19.92;;;14.93;;
62058;SDS011;48017;51.064;7.014;2022-07-23T04:10:16;21.23;;;15.35;;
62058;SDS011;48017;51.064;7.014;2022-07-23T04:12:42;21.10;;;14.88;;
62058;SDS011;48017;51.064;7.014;2022-07-23T04:15:07;21.77;;;15.70;;
62058;SDS011;48017;51.064;7.014;2022-07-23T04:17:33;18.80;;;14.40;;
62058;SDS011;48017;51.064;7.014;2022-07-23T04:19:59;19.27;;;14.30;;
62058;SDS011;48017;51.064;7.014;2022-07-23T04:22:24;19.80;;;14.88;;
62058;SDS011;48017;51.064;7.014;2022-07-23T04:24:50;20.77;;;14.30;;
62058;SDS011;48017;51.064;7.014;2022-07-23T04:27:15;20.92;;;13.68;;
62058;SDS011;48017;51.064;7.014;2022-07-23T04:29:41;18.83;;;13.95;;
62058;SDS011;48017;51.064;7.014;2022-07-23T04:32:06;19.00;;;14.25;;
62058;SDS011;48017;51.064;7.014;2022-07-23T04:34:32;19.52;;;13.70;;
62058;SDS011;48017;51.064;7.014;2022-07-23T04:36:57;20.02;;;14.20;;
62058;SDS011;48017;51.064;7.014;2022-07-23T04:39:22;20.15;;;13.88;;
62058;SDS011;48017;51.064;7.014;2022-07-23T04:41:48;20.65;;;13.57;;
62058;SDS011;48017;51.064;7.014;2022-07-23T04:44:13;20.30;;;13.18;;
62058;SDS011;48017;51.064;7.014;2022-07-23T04:46:39;19.98;;;13.80;;
62058;SDS011;48017;51.064;7.014;2022-07-23T04:49:04;16.83;;;12.63;;
62058;SDS011;48017;51.064;7.014;2022-07-23T04:51:30;17.13;;;12.13;;
62058;SDS011;48017;51.064;7.014;2022-07-23T04:53:55;19.25;;;12.90;;
62058;SDS011;48017;51.064;7.014;2022-07-23T04:56:21;15.95;;;12.43;;
62058;SDS011;48017;51.064;7.014;2022-07-23T04:58:47;18.45;;;11.85;;
62058;SDS011;48017;51.064;7.014;2022-07-23T05:01:12;16.55;;;12.02;;
62058;SDS011;48017;51.064;7.014;2022-07-23T05:03:38;17.80;;;11.70;;
62058;SDS011;48017;51.064;7.014;2022-07-23T05:06:03;17.50;;;12.38;;
62058;SDS011;48017;51.064;7.014;2022-07-23T05:08:29;17.88;;;12.60;;
62058;SDS011;48017;51.064;7.014;2022-07-23T05:10:54;16.55;;;12.73;;
62058;SDS011;48017;51.064;7.014;2022-07-23T05:13:19;17.95;;;12.25;;
62058;SDS011;48017;51.064;7.014;2022-07-23T05:15:45;18.30;;;11.77;;
62058;SDS011;48017;51.064;7.014;2022-07-23T05:18:11;16.50;;;11.73;;
62058;SDS011;48017;51.064;7.014;2022-07-23T05:20:37;16.67;;;11.95;;
62058;SDS011;48017;51.064;7.014;2022-07-23T05:23:03;19.67;;;11.82;;
62058;SDS011;48017;51.064;7.014;2022-07-23T05:25:28;15.43;;;11.60;;
62058;SDS011;48017;51.064;7.014;2022-07-23T05:27:54;16.80;;;12.43;;
62058;SDS011;48017;51.064;7.014;2022-07-23T05:30:20;15.45;;;12.10;;
62058;SDS011;48017;51.064;7.014;2022-07-23T05:32:45;17.30;;;12.57;;
62058;SDS011;48017;51.064;7.014;2022-07-23T05:35:11;16.85;;;11.90;;
62058;SDS011;48017;51.064;7.014;2022-07-23T05:37:36;16.33;;;11.98;;
62058;SDS011;48017;51.064;7.014;2022-07-23T05:40:02;19.85;;;13.57;;
62058;SDS011;48017;51.064;7.014;2022-07-23T05:42:29;19.55;;;12.88;;
62058;SDS011;48017;51.064;7.014;2022-07-23T05:44:54;19.20;;;13.55;;
62058;SDS011;48017;51.064;7.014;2022-07-23T05:47:20;21.55;;;13.40;;
62058;SDS011;48017;51.064;7.014;2022-07-23T05:49:45;18.30;;;12.80;;
62058;SDS011;48017;51.064;7.014;2022-07-23T05:52:10;23.77;;;13.00;;
62058;SDS011;48017;51.064;7.014;2022-07-23T05:54:36;18.48;;;13.77;;
62058;SDS011;48017;51.064;7.014;2022-07-23T05:57:01;21.02;;;13.85;;
62058;SDS011;48017;51.064;7.014;2022-07-23T05:59:28;29.95;;;19.42;;
62058;SDS011;48017;51.064;7.014;2022-07-23T06:01:54;28.52;;;16.25;;
62058;SDS011;48017;51.064;7.014;2022-07-23T06:04:19;28.10;;;17.75;;
62058;SDS011;48017;51.064;7.014;2022-07-23T06:06:45;18.15;;;12.93;;
62058;SDS011;48017;51.064;7.014;2022-07-23T06:09:11;18.10;;;13.18;;
62058;SDS011;48017;51.064;7.014;2022-07-23T06:11:38;20.13;;;13.52;;
62058;SDS011;48017;51.064;7.014;2022-07-23T06:14:04;19.83;;;13.68;;
62058;SDS011;48017;51.064;7.014;2022-07-23T06:16:30;21.90;;;13.70;;
62058;SDS011;48017;51.064;7.014;2022-07-23T06:18:55;16.63;;;12.13;;
62058;SDS011;48017;51.064;7.014;2022-07-23T06:21:21;19.73;;;13.13;;
62058;SDS011;48017;51.064;7.014;2022-07-23T06:23:46;24.58;;;17.15;;
62058;SDS011;48017;51.064;7.014;2022-07-23T06:26:11;24.20;;;15.43;;
62058;SDS011;48017;51.064;7.014;2022-07-23T06:28:37;19.40;;;12.93;;
62058;SDS011;48017;51.064;7.014;2022-07-23T06:31:02;17.48;;;13.00;;
62058;SDS011;48017;51.064;7.014;2022-07-23T06:33:27;19.35;;;12.73;;
62058;SDS011;48017;51.064;7.014;2022-07-23T06:35:53;20.40;;;11.80;;
62058;SDS011;48017;51.064;7.014;2022-07-23T06:38:18;15.70;;;11.48;;
62058;SDS011;48017;51.064;7.014;2022-07-23T06:40:43;22.25;;;17.02;;
62058;SDS011;48017;51.064;7.014;2022-07-23T06:43:09;39.05;;;23.52;;
62058;SDS011;48017;51.064;7.014;2022-07-23T06:45:35;20.15;;;14.30;;
62058;SDS011;48017;51.064;7.014;2022-07-23T06:48:01;15.73;;;10.43;;
62058;SDS011;48017;51.064;7.014;2022-07-23T06:50:28;14.57;;;10.23;;
62058;SDS011;48017;51.064;7.014;2022-07-23T06:52:53;13.80;;;9.77;;
62058;SDS011;48017;51.064;7.014;2022-07-23T06:55:19;13.93;;;9.88;;
62058;SDS011;48017;51.064;7.014;2022-07-23T06:57:44;20.88;;;14.13;;
62058;SDS011;48017;51.064;7.014;2022-07-23T07:00:10;28.60;;;16.30;;
62058;SDS011;48017;51.064;7.014;2022-07-23T07:02:35;20.52;;;10.10;;
62058;SDS011;48017;51.064;7.014;2022-07-23T07:05:01;14.73;;;9.88;;
62058;SDS011;48017;51.064;7.014;2022-07-23T07:07:27;11.80;;;8.93;;
62058;SDS011;48017;51.064;7.014;2022-07-23T07:09:53;11.27;;;7.70;;
62058;SDS011;48017;51.064;7.014;2022-07-23T07:12:18;12.07;;;8.50;;
62058;SDS011;48017;51.064;7.014;2022-07-23T07:14:43;9.90;;;7.40;;
62058;SDS011;48017;51.064;7.014;2022-07-23T07:17:09;12.00;;;8.20;;
62058;SDS011;48017;51.064;7.014;2022-07-23T07:19:35;11.97;;;7.37;;
62058;SDS011;48017;51.064;7.014;2022-07-23T07:22:02;12.30;;;7.75;;
62058;SDS011;48017;51.064;7.014;2022-07-23T07:24:27;14.13;;;8.80;;
62058;SDS011;48017;51.064;7.014;2022-07-23T07:26:52;10.20;;;7.78;;
62058;SDS011;48017;51.064;7.014;2022-07-23T07:29:18;9.25;;;7.10;;
62058;SDS011;48017;51.064;7.014;2022-07-23T07:31:43;12.73;;;8.85;;
62058;SDS011;48017;51.064;7.014;2022-07-23T07:34:09;13.35;;;9.13;;
62058;SDS011;48017;51.064;7.014;2022-07-23T07:36:35;12.13;;;8.63;;
62058;SDS011;48017;51.064;7.014;2022-07-23T07:39:02;10.80;;;7.75;;
62058;SDS011;48017;51.064;7.014;2022-07-23T07:41:29;12.75;;;8.18;;
62058;SDS011;48017;51.064;7.014;2022-07-23T07:43:54;15.57;;;8.68;;
62058;SDS011;48017;51.064;7.014;2022-07-23T07:46:20;14.50;;;8.30;;
62058;SDS011;48017;51.064;7.014;2022-07-23T07:48:45;15.35;;;8.32;;
62058;SDS011;48017;51.064;7.014;2022-07-23T07:51:10;11.85;;;8.32;;
62058;SDS011;48017;51.064;7.014;2022-07-23T07:53:36;14.85;;;8.18;;
62058;SDS011;48017;51.064;7.014;2022-07-23T07:56:01;12.73;;;8.15;;
62058;SDS011;48017;51.064;7.014;2022-07-23T07:58:27;16.15;;;8.13;;
62058;SDS011;48017;51.064;7.014;2022-07-23T08:00:52;13.55;;;7.05;;
62058;SDS011;48017;51.064;7.014;2022-07-23T08:03:17;11.88;;;8.25;;
62058;SDS011;48017;51.064;7.014;2022-07-23T08:05:43;12.00;;;7.40;;
62058;SDS011;48017;51.064;7.014;2022-07-23T08:08:08;10.52;;;7.43;;
62058;SDS011;48017;51.064;7.014;2022-07-23T08:10:39;11.88;;;8.02;;
62058;SDS011;48017;51.064;7.014;2022-07-23T08:13:05;10.80;;;6.97;;
62058;SDS011;48017;51.064;7.014;2022-07-23T08:15:30;9.85;;;7.10;;
62058;SDS011;48017;51.064;7.014;2022-07-23T08:17:57;13.18;;;6.50;;
62058;SDS011;48017;51.064;7.014;2022-07-23T08:20:23;11.40;;;6.05;;
62058;SDS011;48017;51.064;7.014;2022-07-23T08:25:23;12.40;;;6.55;;
62058;SDS011;48017;51.064;7.014;2022-07-23T08:27:52;11.45;;;6.38;;
62058;SDS011;48017;51.064;7.014;2022-07-23T08:30:18;9.30;;;5.75;;
62058;SDS011;48017;51.064;7.014;2022-07-23T08:33:18;8.05;;;5.78;;
62058;SDS011;48017;51.064;7.014;2022-07-23T08:35:41;10.52;;;6.60;;
62058;SDS011;48017;51.064;7.014;2022-07-23T08:38:10;8.23;;;5.70;;
62058;SDS011;48017;51.064;7.014;2022-07-23T08:40:38;8.40;;;6.13;;
62058;SDS011;48017;51.064;7.014;2022-07-23T08:43:06;9.73;;;5.85;;
62058;SDS011;48017;51.064;7.014;2022-07-23T08:45:38;11.98;;;6.05;;
62058;SDS011;48017;51.064;7.014;2022-07-23T08:48:09;7.95;;;5.25;;
62058;SDS011;48017;51.064;7.014;2022-07-23T08:50:36;8.88;;;5.65;;
62058;SDS011;48017;51.064;7.014;2022-07-23T08:53:05;7.57;;;5.50;;
62058;SDS011;48017;51.064;7.014;2022-07-23T08:55:32;12.65;;;6.07;;
62058;SDS011;48017;51.064;7.014;2022-07-23T08:57:57;11.80;;;6.07;;
62058;SDS011;48017;51.064;7.014;2022-07-23T09:00:23;10.77;;;7.53;;
62058;SDS011;48017;51.064;7.014;2022-07-23T09:02:48;9.90;;;6.07;;
62058;SDS011;48017;51.064;7.014;2022-07-23T09:05:15;8.77;;;6.35;;
62058;SDS011;48017;51.064;7.014;2022-07-23T09:10:46;9.35;;;6.30;;
62058;SDS011;48017;51.064;7.014;2022-07-23T09:13:32;8.60;;;5.57;;
62058;SDS011;48017;51.064;7.014;2022-07-23T09:16:11;8.88;;;5.30;;
62058;SDS011;48017;51.064;7.014;2022-07-23T09:21:13;8.82;;;5.68;;
62058;SDS011;48017;51.064;7.014;2022-07-23T09:24:16;9.68;;;5.20;;
62058;SDS011;48017;51.064;7.014;2022-07-23T09:26:36;7.75;;;5.80;;
62058;SDS011;48017;51.064;7.014;2022-07-23T09:29:18;10.38;;;6.45;;
62058;SDS011;48017;51.064;7.014;2022-07-23T09:36:42;11.35;;;6.07;;
62058;SDS011;48017;51.064;7.014;2022-07-23T09:39:08;9.35;;;5.75;;
62058;SDS011;48017;51.064;7.014;2022-07-23T09:41:42;10.23;;;5.95;;
62058;SDS011;48017;51.064;7.014;2022-07-23T09:44:12;10.85;;;6.50;;
62058;SDS011;48017;51.064;7.014;2022-07-23T09:46:41;11.52;;;7.25;;
62058;SDS011;48017;51.064;7.014;2022-07-23T09:49:19;9.45;;;7.05;;
62058;SDS011;48017;51.064;7.014;2022-07-23T09:51:47;9.40;;;6.35;;
62058;SDS011;48017;51.064;7.014;2022-07-23T09:57:08;10.57;;;6.28;;
62058;SDS011;48017;51.064;7.014;2022-07-23T09:59:39;8.05;;;5.82;;
62058;SDS011;48017;51.064;7.014;2022-07-23T10:02:07;7.82;;;6.00;;
62058;SDS011;48017;51.064;7.014;2022-07-23T10:04:34;12.27;;;7.00;;
62058;SDS011;48017;51.064;7.014;2022-07-23T10:07:01;10.27;;;6.60;;
62058;SDS011;48017;51.064;7.014;2022-07-23T10:09:32;10.80;;;6.60;;
62058;SDS011;48017;51.064;7.014;2022-07-23T10:12:00;10.00;;;7.20;;
62058;SDS011;48017;51.064;7.014;2022-07-23T10:14:38;11.55;;;7.28;;
62058;SDS011;48017;51.064;7.014;2022-07-23T10:17:04;9.18;;;6.45;;
62058;SDS011;48017;51.064;7.014;2022-07-23T10:19:30;10.07;;;7.10;;
62058;SDS011;48017;51.064;7.014;2022-07-23T10:22:03;11.45;;;6.57;;
62058;SDS011;48017;51.064;7.014;2022-07-23T10:30:15;10.93;;;8.27;;
62058;SDS011;48017;51.064;7.014;2022-07-23T10:41:01;8.15;;;5.15;;
62058;SDS011;48017;51.064;7.014;2022-07-23T10:43:29;9.52;;;5.88;;
62058;SDS011;48017;51.064;7.014;2022-07-23T10:45:55;8.07;;;6.15;;
62058;SDS011;48017;51.064;7.014;2022-07-23T10:48:41;9.85;;;6.43;;
62058;SDS011;48017;51.064;7.014;2022-07-23T10:51:10;10.43;;;6.22;;
62058;SDS011;48017;51.064;7.014;2022-07-23T10:58:50;7.72;;;5.18;;
62058;SDS011;48017;51.064;7.014;2022-07-23T11:01:31;7.75;;;4.82;;
62058;SDS011;48017;51.064;7.014;2022-07-23T11:04:01;6.18;;;5.20;;
62058;SDS011;48017;51.064;7.014;2022-07-23T11:09:26;8.40;;;4.50;;
62058;SDS011;48017;51.064;7.014;2022-07-23T11:20:13;7.80;;;4.75;;
62058;SDS011;48017;51.064;7.014;2022-07-23T11:25:14;5.18;;;3.58;;
62058;SDS011;48017;51.064;7.014;2022-07-23T11:28:07;4.95;;;4.00;;
62058;SDS011;48017;51.064;7.014;2022-07-23T11:35:37;6.95;;;3.70;;
62058;SDS011;48017;51.064;7.014;2022-07-23T11:38:05;5.93;;;4.80;;
62058;SDS011;48017;51.064;7.014;2022-07-23T11:43:09;6.13;;;4.70;;
62058;SDS011;48017;51.064;7.014;2022-07-23T11:45:43;7.00;;;4.00;;
62058;SDS011;48017;51.064;7.014;2022-07-23T11:48:17;8.38;;;5.60;;
62058;SDS011;48017;51.064;7.014;2022-07-23T11:50:47;7.38;;;4.57;;
62058;SDS011;48017;51.064;7.014;2022-07-23T11:53:13;8.43;;;4.70;;
62058;SDS011;48017;51.064;7.014;2022-07-23T11:55:39;5.97;;;4.15;;
62058;SDS011;48017;51.064;7.014;2022-07-23T11:58:04;7.25;;;4.93;;
62058;SDS011;48017;51.064;7.014;2022-07-23T12:00:30;8.32;;;4.47;;
62058;SDS011;48017;51.064;7.014;2022-07-23T12:05:27;7.45;;;4.25;;
62058;SDS011;48017;51.064;7.014;2022-07-23T12:07:55;7.82;;;4.70;;
62058;SDS011;48017;51.064;7.014;2022-07-23T12:10:25;6.80;;;4.80;;
62058;SDS011;48017;51.064;7.014;2022-07-23T12:12:58;4.72;;;4.10;;
62058;SDS011;48017;51.064;7.014;2022-07-23T12:17:56;9.07;;;5.68;;
62058;SDS011;48017;51.064;7.014;2022-07-23T12:20:24;7.90;;;5.00;;
62058;SDS011;48017;51.064;7.014;2022-07-23T12:22:52;9.00;;;5.43;;
62058;SDS011;48017;51.064;7.014;2022-07-23T12:25:21;12.13;;;5.20;;
62058;SDS011;48017;51.064;7.014;2022-07-23T12:30:32;8.65;;;5.30;;
62058;SDS011;48017;51.064;7.014;2022-07-23T12:33:23;8.70;;;5.65;;
62058;SDS011;48017;51.064;7.014;2022-07-23T12:35:59;11.85;;;5.13;;
62058;SDS011;48017;51.064;7.014;2022-07-23T12:38:27;7.13;;;4.82;;
62058;SDS011;48017;51.064;7.014;2022-07-23T12:45:48;11.02;;;6.43;;
62058;SDS011;48017;51.064;7.014;2022-07-23T12:48:26;8.93;;;5.43;;
62058;SDS011;48017;51.064;7.014;2022-07-23T12:56:14;9.82;;;5.38;;
62058;SDS011;48017;51.064;7.014;2022-07-23T12:58:43;6.55;;;5.00;;
62058;SDS011;48017;51.064;7.014;2022-07-23T13:06:25;10.40;;;4.75;;
62058;SDS011;48017;51.064;7.014;2022-07-23T13:08:51;7.15;;;3.97;;
62058;SDS011;48017;51.064;7.014;2022-07-23T13:11:17;6.72;;;3.42;;
62058;SDS011;48017;51.064;7.014;2022-07-23T13:13:42;6.53;;;3.38;;
62058;SDS011;48017;51.064;7.014;2022-07-23T13:16:08;4.82;;;2.60;;
62058;SDS011;48017;51.064;7.014;2022-07-23T13:18:33;7.18;;;4.35;;
62058;SDS011;48017;51.064;7.014;2022-07-23T13:20:59;11.18;;;6.32;;
62058;SDS011;48017;51.064;7.014;2022-07-23T13:23:24;6.05;;;3.25;;
62058;SDS011;48017;51.064;7.014;2022-07-23T13:25:50;5.57;;;3.05;;
62058;SDS011;48017;51.064;7.014;2022-07-23T13:28:16;6.75;;;3.50;;
62058;SDS011;48017;51.064;7.014;2022-07-23T13:30:44;8.18;;;3.50;;
62058;SDS011;48017;51.064;7.014;2022-07-23T13:33:10;6.70;;;3.42;;
62058;SDS011;48017;51.064;7.014;2022-07-23T13:35:36;5.93;;;3.25;;
62058;SDS011;48017;51.064;7.014;2022-07-23T13:38:03;8.40;;;3.40;;
62058;SDS011;48017;51.064;7.014;2022-07-23T13:40:32;5.15;;;3.05;;
62058;SDS011;48017;51.064;7.014;2022-07-23T13:42:58;7.15;;;3.55;;
62058;SDS011;48017;51.064;7.014;2022-07-23T13:45:23;5.97;;;3.00;;
62058;SDS011;48017;51.064;7.014;2022-07-23T13:47:49;6.30;;;3.35;;
62058;SDS011;48017;51.064;7.014;2022-07-23T13:50:14;6.25;;;3.38;;
62058;SDS011;48017;51.064;7.014;2022-07-23T13:52:41;7.45;;;2.92;;
62058;SDS011;48017;51.064;7.014;2022-07-23T13:55:07;5.63;;;3.08;;
62058;SDS011;48017;51.064;7.014;2022-07-23T13:57:33;6.80;;;3.35;;
62058;SDS011;48017;51.064;7.014;2022-07-23T13:59:58;9.30;;;4.80;;
62058;SDS011;48017;51.064;7.014;2022-07-23T14:02:24;10.02;;;5.10;;
62058;SDS011;48017;51.064;7.014;2022-07-23T14:04:50;7.68;;;3.10;;
62058;SDS011;48017;51.064;7.014;2022-07-23T14:07:16;7.17;;;3.93;;
62058;SDS011;48017;51.064;7.014;2022-07-23T14:09:41;5.55;;;3.17;;
62058;SDS011;48017;51.064;7.014;2022-07-23T14:12:07;8.10;;;2.78;;
62058;SDS011;48017;51.064;7.014;2022-07-23T14:14:33;6.07;;;2.88;;
62058;SDS011;48017;51.064;7.014;2022-07-23T14:16:59;8.23;;;2.30;;
62058;SDS011;48017;51.064;7.014;2022-07-23T14:19:24;4.60;;;2.58;;
62058;SDS011;48017;51.064;7.014;2022-07-23T14:21:50;4.88;;;2.70;;
62058;SDS011;48017;51.064;7.014;2022-07-23T14:24:15;4.70;;;2.60;;
62058;SDS011;48017;51.064;7.014;2022-07-23T14:26:41;6.70;;;2.88;;
62058;SDS011;48017;51.064;7.014;2022-07-23T14:29:07;4.38;;;3.00;;
62058;SDS011;48017;51.064;7.014;2022-07-23T14:31:32;6.43;;;2.78;;
62058;SDS011;48017;51.064;7.014;2022-07-23T14:33:57;5.93;;;2.70;;
62058;SDS011;48017;51.064;7.014;2022-07-23T14:36:24;6.17;;;2.90;;
62058;SDS011;48017;51.064;7.014;2022-07-23T14:38:50;5.30;;;3.25;;
62058;SDS011;48017;51.064;7.014;2022-07-23T14:41:15;8.63;;;5.45;;
62058;SDS011;48017;51.064;7.014;2022-07-23T14:43:41;7.72;;;4.30;;
62058;SDS011;48017;51.064;7.014;2022-07-23T14:46:07;6.88;;;3.80;;
62058;SDS011;48017;51.064;7.014;2022-07-23T14:48:32;5.90;;;3.58;;
62058;SDS011;48017;51.064;7.014;2022-07-23T14:50:58;5.30;;;2.83;;
62058;SDS011;48017;51.064;7.014;2022-07-23T14:53:23;6.32;;;2.90;;
62058;SDS011;48017;51.064;7.014;2022-07-23T14:55:48;4.68;;;2.78;;
62058;SDS011;48017;51.064;7.014;2022-07-23T14:58:14;7.13;;;3.00;;
62058;SDS011;48017;51.064;7.014;2022-07-23T15:00:39;4.43;;;2.40;;
62058;SDS011;48017;51.064;7.014;2022-07-23T15:03:05;4.35;;;2.72;;
62058;SDS011;48017;51.064;7.014;2022-07-23T15:05:30;4.97;;;2.33;;
62058;SDS011;48017;51.064;7.014;2022-07-23T15:07:56;5.85;;;2.80;;
62058;SDS011;48017;51.064;7.014;2022-07-23T15:10:21;4.85;;;2.60;;
62058;SDS011;48017;51.064;7.014;2022-07-23T15:12:46;4.85;;;2.63;;
62058;SDS011;48017;51.064;7.014;2022-07-23T15:15:12;7.30;;;2.55;;
62058;SDS011;48017;51.064;7.014;2022-07-23T15:17:38;4.22;;;2.40;;
62058;SDS011;48017;51.064;7.014;2022-07-23T15:20:04;5.90;;;3.90;;
62058;SDS011;48017;51.064;7.014;2022-07-23T15:22:30;8.20;;;3.75;;
62058;SDS011;48017;51.064;7.014;2022-07-23T15:24:55;8.20;;;4.20;;
62058;SDS011;48017;51.064;7.014;2022-07-23T15:27:21;4.57;;;2.83;;
62058;SDS011;48017;51.064;7.014;2022-07-23T15:29:46;4.93;;;2.97;;
62058;SDS011;48017;51.064;7.014;2022-07-23T15:32:11;5.65;;;2.80;;
62058;SDS011;48017;51.064;7.014;2022-07-23T15:34:37;4.30;;;2.75;;
62058;SDS011;48017;51.064;7.014;2022-07-23T15:37:03;6.57;;;2.75;;
62058;SDS011;48017;51.064;7.014;2022-07-23T15:39:32;5.18;;;2.75;;
62058;SDS011;48017;51.064;7.014;2022-07-23T15:42:01;6.05;;;2.38;;
62058;SDS011;48017;51.064;7.014;2022-07-23T15:44:28;7.43;;;2.30;;
62058;SDS011;48017;51.064;7.014;2022-07-23T15:46:53;6.40;;;2.42;;
62058;SDS011;48017;51.064;7.014;2022-07-23T15:49:20;4.07;;;2.30;;
62058;SDS011;48017;51.064;7.014;2022-07-23T15:51:45;5.00;;;2.97;;
62058;SDS011;48017;51.064;7.014;2022-07-23T15:54:11;5.53;;;2.50;;